Time;durP1;ratioP1;P1;durP2;ratioP2;P2;SDS_P1;SDS_P2;PMS_P1;PMS_P2;Temp;Humidity;BMP_temperature;BMP_pressure;BME280_temperature;BME280_humidity;BME280_pressure;Samples;Min_cycle;Max_cycle;Signal;HPM_P1;HPM_P2
2022/03/25 00:00:12;;;;;;;475.40;44.90;;;;;;;;;;5054854;28;20135;-75
2022/03/25 00:02:39;;;;;;;472.17;58.00;;;;;;;;;;5055142;28;20109;-75
2022/03/25 00:05:05;;;;;;;345.40;42.15;;;;;;;;;;5071757;28;20488;-75
2022/03/25 00:07:32;;;;;;;307.13;42.95;;;;;;;;;;5054869;28;20033;-75
2022/03/25 00:09:58;;;;;;;348.27;42.55;;;;;;;;;;5054963;28;20051;-75
2022/03/25 00:12:26;;;;;;;455.58;52.88;;;;;;;;;;5054622;28;20048;-75
2022/03/25 00:14:52;;;;;;;258.70;37.40;;;;;;;;;;5071648;28;20048;-76
2022/03/25 00:17:18;;;;;;;328.35;39.53;;;;;;;;;;5054544;28;20064;-75
2022/03/25 00:19:44;;;;;;;269.10;39.50;;;;;;;;;;5054550;28;20040;-75
2022/03/25 00:22:10;;;;;;;288.40;34.72;;;;;;;;;;5070609;28;20086;-75
2022/03/25 00:24:36;;;;;;;284.45;36.00;;;;;;;;;;5053972;28;20064;-77
2022/03/25 00:27:02;;;;;;;282.85;36.95;;;;;;;;;;5070440;28;20032;-77
2022/03/25 00:29:28;;;;;;;341.63;42.22;;;;;;;;;;5070523;28;20104;-77
2022/03/25 00:31:54;;;;;;;355.73;41.47;;;;;;;;;;5053926;28;20039;-77
2022/03/25 00:34:20;;;;;;;403.60;47.70;;;;;;;;;;5070376;28;20039;-77
2022/03/25 00:36:46;;;;;;;367.35;44.50;;;;;;;;;;5070839;28;20468;-77
2022/03/25 00:39:12;;;;;;;489.75;55.00;;;;;;;;;;5070661;28;20032;-77
2022/03/25 00:41:38;;;;;;;418.65;44.85;;;;;;;;;;5070236;28;20488;-77
2022/03/25 00:44:07;;;;;;;270.45;36.75;;;;;;;;;;5051240;28;20491;-77
2022/03/25 00:46:33;;;;;;;218.80;30.52;;;;;;;;;;5053541;28;20488;-77
2022/03/25 00:49:00;;;;;;;258.35;34.15;;;;;;;;;;5053397;28;20032;-78
2022/03/25 00:51:26;;;;;;;329.33;39.00;;;;;;;;;;5070268;28;20178;-78
2022/03/25 00:53:52;;;;;;;351.45;37.20;;;;;;;;;;5053504;28;20045;-77
2022/03/25 00:56:18;;;;;;;478.10;46.35;;;;;;;;;;5070527;28;20109;-77
2022/03/25 00:58:44;;;;;;;402.90;45.50;;;;;;;;;;5053473;28;20126;-77
2022/03/25 01:01:10;;;;;;;423.75;46.20;;;;;;;;;;5053554;28;20035;-78
2022/03/25 01:03:36;;;;;;;276.08;34.58;;;;;;;;;;5069946;28;20039;-78
2022/03/25 01:06:03;;;;;;;319.73;40.45;;;;;;;;;;5070217;28;20036;-77
2022/03/25 01:08:29;;;;;;;294.65;37.20;;;;;;;;;;5069472;28;20041;-77
2022/03/25 01:10:55;;;;;;;323.30;36.00;;;;;;;;;;5053280;28;20033;-77
2022/03/25 01:13:22;;;;;;;324.98;37.38;;;;;;;;;;5070108;28;20029;-77
2022/03/25 01:15:48;;;;;;;351.85;39.47;;;;;;;;;;5070162;28;20044;-77
2022/03/25 01:18:14;;;;;;;347.42;34.22;;;;;;;;;;5053058;28;20140;-77
2022/03/25 01:20:41;;;;;;;288.13;31.42;;;;;;;;;;5069608;28;20098;-77
2022/03/25 01:23:09;;;;;;;326.13;34.80;;;;;;;;;;5053428;28;20040;-77
2022/03/25 01:25:36;;;;;;;326.63;37.00;;;;;;;;;;5053440;28;20044;-77
2022/03/25 01:28:02;;;;;;;312.42;32.47;;;;;;;;;;5053931;28;20040;-77
2022/03/25 01:30:28;;;;;;;391.30;39.55;;;;;;;;;;5070300;28;20851;-77
2022/03/25 01:32:54;;;;;;;411.23;40.88;;;;;;;;;;5053395;28;20037;-77
2022/03/25 01:35:24;;;;;;;306.45;33.88;;;;;;;;;;5070393;28;20037;-77
2022/03/25 01:37:50;;;;;;;462.98;47.83;;;;;;;;;;5070027;28;20044;-77
2022/03/25 01:40:16;;;;;;;416.83;39.60;;;;;;;;;;5053207;28;20127;-77
2022/03/25 01:42:42;;;;;;;361.45;37.78;;;;;;;;;;5053339;28;20393;-77
2022/03/25 01:45:11;;;;;;;333.60;34.55;;;;;;;;;;5053170;28;20050;-77
2022/03/25 01:47:38;;;;;;;394.67;39.17;;;;;;;;;;5053319;28;20399;-77
2022/03/25 01:50:05;;;;;;;290.40;32.90;;;;;;;;;;5053267;28;20454;-77
2022/03/25 01:52:32;;;;;;;395.67;37.03;;;;;;;;;;5053282;28;20044;-77
2022/03/25 01:55:14;;;;;;;398.25;37.05;;;;;;;;;;5069978;28;20389;-77
2022/03/25 01:57:40;;;;;;;348.65;35.92;;;;;;;;;;5053175;28;20047;-77
2022/03/25 02:00:06;;;;;;;261.73;32.63;;;;;;;;;;5069966;28;20477;-77
2022/03/25 02:02:32;;;;;;;333.63;36.22;;;;;;;;;;5069742;28;20123;-77
2022/03/25 02:04:59;;;;;;;390.50;39.97;;;;;;;;;;5053312;28;20040;-76
2022/03/25 02:07:25;;;;;;;463.10;48.05;;;;;;;;;;5070019;28;20504;-76
2022/03/25 02:09:51;;;;;;;417.77;42.75;;;;;;;;;;5052939;28;20044;-77
2022/03/25 02:12:18;;;;;;;441.05;45.13;;;;;;;;;;5053388;28;20512;-77
2022/03/25 02:14:44;;;;;;;441.55;44.60;;;;;;;;;;5069773;28;20446;-77
2022/03/25 02:17:10;;;;;;;470.67;45.28;;;;;;;;;;5069555;28;20412;-76
2022/03/25 02:19:36;;;;;;;529.28;52.50;;;;;;;;;;5072061;28;20044;-76
2022/03/25 02:22:02;;;;;;;381.17;39.60;;;;;;;;;;5073424;28;20043;-76
2022/03/25 02:24:28;;;;;;;327.83;38.88;;;;;;;;;;5056694;28;20041;-76
2022/03/25 02:26:54;;;;;;;385.08;39.45;;;;;;;;;;5073254;28;20492;-76
2022/03/25 02:29:20;;;;;;;421.42;45.03;;;;;;;;;;5056896;28;20040;-76
2022/03/25 02:31:46;;;;;;;431.98;45.17;;;;;;;;;;5073556;28;20131;-76
2022/03/25 02:34:12;;;;;;;404.27;43.35;;;;;;;;;;5073516;28;20040;-76
2022/03/25 02:36:39;;;;;;;438.20;44.30;;;;;;;;;;5073260;28;20040;-76
2022/03/25 02:39:06;;;;;;;453.77;45.95;;;;;;;;;;5056321;28;20048;-76
2022/03/25 02:41:32;;;;;;;424.52;43.42;;;;;;;;;;5072891;28;20040;-76
2022/03/25 02:43:59;;;;;;;419.17;41.58;;;;;;;;;;5073280;28;20051;-76
2022/03/25 02:46:25;;;;;;;277.73;31.23;;;;;;;;;;5056385;28;20447;-76
2022/03/25 02:48:51;;;;;;;304.33;32.10;;;;;;;;;;5056284;28;20040;-76
2022/03/25 02:51:17;;;;;;;513.67;48.10;;;;;;;;;;5056503;28;20049;-76
2022/03/25 02:53:43;;;;;;;347.58;37.15;;;;;;;;;;5072785;28;20044;-76
2022/03/25 02:56:09;;;;;;;182.48;25.85;;;;;;;;;;5056098;28;20097;-76
2022/03/25 02:58:35;;;;;;;380.45;34.30;;;;;;;;;;5072772;28;20341;-76
2022/03/25 03:01:01;;;;;;;325.00;34.17;;;;;;;;;;5072929;28;20046;-76
2022/03/25 03:03:27;;;;;;;260.48;31.05;;;;;;;;;;5072631;28;20082;-76
2022/03/25 03:05:53;;;;;;;239.88;27.35;;;;;;;;;;5072977;28;20090;-76
2022/03/25 03:08:19;;;;;;;296.80;29.98;;;;;;;;;;5055958;28;20036;-76
2022/03/25 03:10:45;;;;;;;309.85;35.60;;;;;;;;;;5055832;28;20090;-76
2022/03/25 03:13:11;;;;;;;231.50;26.48;;;;;;;;;;5072861;28;20136;-76
2022/03/25 03:15:37;;;;;;;263.45;30.38;;;;;;;;;;5055785;28;20080;-76
2022/03/25 03:18:04;;;;;;;338.17;33.13;;;;;;;;;;5072245;28;20107;-76
2022/03/25 03:20:30;;;;;;;408.95;36.53;;;;;;;;;;5055613;28;20045;-76
2022/03/25 03:22:57;;;;;;;260.90;29.30;;;;;;;;;;5072665;28;20040;-76
2022/03/25 03:25:23;;;;;;;274.60;30.23;;;;;;;;;;5055923;28;20037;-76
2022/03/25 03:27:49;;;;;;;199.68;26.08;;;;;;;;;;5055780;28;20028;-76
2022/03/25 03:30:15;;;;;;;211.45;25.10;;;;;;;;;;5055177;28;20040;-76
2022/03/25 03:32:41;;;;;;;211.25;25.88;;;;;;;;;;5055480;28;20044;-76
2022/03/25 03:35:08;;;;;;;301.75;30.33;;;;;;;;;;5055437;28;20078;-76
2022/03/25 03:37:41;;;;;;;226.10;26.13;;;;;;;;;;5055367;28;20500;-76
2022/03/25 03:40:08;;;;;;;282.02;29.80;;;;;;;;;;5055435;28;20040;-76
2022/03/25 03:42:34;;;;;;;230.65;21.45;;;;;;;;;;5055104;28;20032;-76
2022/03/25 03:45:00;;;;;;;230.65;23.05;;;;;;;;;;5071583;28;20609;-76
2022/03/25 03:47:26;;;;;;;152.02;18.20;;;;;;;;;;5055161;28;20037;-76
2022/03/25 03:49:52;;;;;;;302.77;32.13;;;;;;;;;;5071799;28;20045;-76
2022/03/25 03:52:17;;;;;;;180.07;20.90;;;;;;;;;;5055191;28;20547;-76
2022/03/25 03:54:43;;;;;;;163.57;20.65;;;;;;;;;;5055024;28;20492;-76
2022/03/25 03:57:09;;;;;;;355.77;31.88;;;;;;;;;;5071905;28;20492;-76
2022/03/25 03:59:36;;;;;;;170.75;22.52;;;;;;;;;;5054847;28;20133;-76
2022/03/25 04:02:03;;;;;;;202.90;23.23;;;;;;;;;;5071599;28;20041;-76
2022/03/25 04:04:29;;;;;;;344.23;30.25;;;;;;;;;;5071859;28;20076;-76
2022/03/25 04:06:55;;;;;;;200.93;24.77;;;;;;;;;;5071505;28;20115;-76
2022/03/25 04:09:21;;;;;;;235.02;24.77;;;;;;;;;;5071427;28;20060;-76
2022/03/25 04:11:47;;;;;;;208.93;27.30;;;;;;;;;;5071387;28;20119;-76
2022/03/25 04:14:12;;;;;;;189.10;22.10;;;;;;;;;;5054741;28;20099;-76
2022/03/25 04:16:38;;;;;;;208.48;24.77;;;;;;;;;;5054686;28;20049;-76
2022/03/25 04:19:04;;;;;;;292.17;30.35;;;;;;;;;;5054541;28;20102;-76
2022/03/25 04:21:30;;;;;;;233.57;23.40;;;;;;;;;;5054511;28;20037;-76
2022/03/25 04:23:56;;;;;;;209.25;24.55;;;;;;;;;;5071151;28;20442;-76
2022/03/25 04:26:24;;;;;;;103.85;18.77;;;;;;;;;;5071077;28;20435;-76
2022/03/25 04:28:50;;;;;;;227.00;25.80;;;;;;;;;;5054629;28;20036;-76
2022/03/25 04:31:16;;;;;;;258.40;28.00;;;;;;;;;;5071243;28;20102;-76
2022/03/25 04:33:42;;;;;;;302.23;32.88;;;;;;;;;;5071421;28;20041;-76
2022/03/25 04:36:08;;;;;;;236.20;26.70;;;;;;;;;;5054147;28;20041;-76
2022/03/25 04:38:34;;;;;;;289.65;27.15;;;;;;;;;;5071105;28;20123;-74
2022/03/25 04:41:00;;;;;;;249.27;28.20;;;;;;;;;;5070621;28;20032;-74
2022/03/25 04:43:26;;;;;;;232.77;25.17;;;;;;;;;;5069937;28;20044;-74
2022/03/25 04:45:52;;;;;;;208.13;23.55;;;;;;;;;;5070716;28;20404;-74
2022/03/25 04:48:18;;;;;;;152.98;20.70;;;;;;;;;;5054059;28;20041;-74
2022/03/25 04:50:44;;;;;;;173.02;22.63;;;;;;;;;;5070615;28;20045;-74
2022/03/25 04:53:11;;;;;;;134.27;19.77;;;;;;;;;;5070636;28;20047;-74
2022/03/25 04:55:37;;;;;;;110.82;17.52;;;;;;;;;;5070947;28;20051;-74
2022/03/25 04:58:03;;;;;;;102.57;21.73;;;;;;;;;;5053828;28;20041;-74
2022/03/25 05:00:29;;;;;;;125.72;21.67;;;;;;;;;;5070539;28;20515;-74
2022/03/25 05:02:55;;;;;;;215.68;30.40;;;;;;;;;;5053832;28;20123;-74
2022/03/25 05:05:21;;;;;;;362.52;33.58;;;;;;;;;;5070345;28;20037;-74
2022/03/25 05:07:50;;;;;;;265.75;30.95;;;;;;;;;;5053684;28;20047;-74
2022/03/25 05:10:16;;;;;;;381.33;37.33;;;;;;;;;;5053769;28;20500;-74
2022/03/25 05:12:42;;;;;;;196.27;26.67;;;;;;;;;;5070294;28;20040;-74
2022/03/25 05:15:08;;;;;;;201.90;28.35;;;;;;;;;;5070689;28;20051;-74
2022/03/25 05:17:35;;;;;;;134.80;24.92;;;;;;;;;;5070009;28;20139;-74
2022/03/25 05:20:08;;;;;;;120.28;21.77;;;;;;;;;;5070362;28;20052;-74
2022/03/25 05:22:34;;;;;;;68.63;19.50;;;;;;;;;;5070542;28;20070;-74
2022/03/25 05:25:00;;;;;;;100.40;21.75;;;;;;;;;;5070174;28;20041;-74
2022/03/25 05:27:26;;;;;;;103.10;22.48;;;;;;;;;;5053412;28;20032;-74
2022/03/25 05:29:52;;;;;;;114.95;22.90;;;;;;;;;;5053631;28;20044;-74
2022/03/25 05:32:18;;;;;;;94.63;22.35;;;;;;;;;;5053620;28;20123;-74
2022/03/25 05:34:44;;;;;;;107.75;21.85;;;;;;;;;;5053440;28;20047;-77
2022/03/25 05:37:10;;;;;;;90.68;22.20;;;;;;;;;;5070415;28;20052;-76
2022/03/25 05:39:36;;;;;;;42.88;18.58;;;;;;;;;;5053317;28;20044;-76
2022/03/25 05:42:02;;;;;;;51.45;21.38;;;;;;;;;;5053342;28;20464;-77
2022/03/25 05:44:30;;;;;;;58.85;21.27;;;;;;;;;;5053314;28;20047;-74
2022/03/25 05:46:56;;;;;;;44.92;19.90;;;;;;;;;;5069948;28;20440;-74
2022/03/25 05:49:22;;;;;;;46.80;19.63;;;;;;;;;;5069827;28;20080;-74
2022/03/25 05:51:48;;;;;;;43.17;18.48;;;;;;;;;;5053312;28;20079;-74
2022/03/25 05:54:14;;;;;;;38.85;17.58;;;;;;;;;;5055265;28;20048;-74
2022/03/25 05:56:40;;;;;;;35.08;16.80;;;;;;;;;;5057312;28;20040;-74
2022/03/25 05:59:06;;;;;;;45.25;18.15;;;;;;;;;;5073888;28;20041;-74
2022/03/25 06:01:32;;;;;;;42.13;16.92;;;;;;;;;;5074090;28;20093;-74
2022/03/25 06:03:58;;;;;;;39.08;17.38;;;;;;;;;;5057269;28;20396;-74
2022/03/25 06:06:24;;;;;;;38.28;17.48;;;;;;;;;;5073788;28;20455;-74
2022/03/25 06:08:50;;;;;;;39.53;18.10;;;;;;;;;;5073705;28;20040;-74
2022/03/25 06:11:16;;;;;;;53.80;21.35;;;;;;;;;;5057208;28;20594;-74
2022/03/25 06:13:42;;;;;;;43.45;17.08;;;;;;;;;;5057223;28;20036;-74
2022/03/25 06:16:08;;;;;;;42.75;19.27;;;;;;;;;;5074174;28;20040;-74
2022/03/25 06:18:34;;;;;;;42.05;19.95;;;;;;;;;;5073787;28;20048;-77
2022/03/25 06:21:00;;;;;;;46.95;19.50;;;;;;;;;;5056808;28;20151;-77
2022/03/25 06:23:26;;;;;;;54.17;22.00;;;;;;;;;;5057304;28;20373;-77
2022/03/25 06:25:52;;;;;;;43.55;18.20;;;;;;;;;;5057594;28;20451;-77
2022/03/25 06:28:22;;;;;;;53.42;21.98;;;;;;;;;;5076153;28;20142;-76
2022/03/25 06:30:48;;;;;;;56.20;22.50;;;;;;;;;;5075077;28;20048;-77
2022/03/25 06:33:14;;;;;;;62.78;24.98;;;;;;;;;;5057270;28;20044;-77
2022/03/25 06:35:40;;;;;;;58.88;23.73;;;;;;;;;;5057578;28;20047;-77
2022/03/25 06:38:08;;;;;;;62.92;25.92;;;;;;;;;;5073141;28;20151;-77
2022/03/25 06:40:34;;;;;;;62.28;25.15;;;;;;;;;;5056335;28;20047;-77
2022/03/25 06:43:00;;;;;;;71.63;26.73;;;;;;;;;;5056410;28;20063;-77
2022/03/25 06:45:27;;;;;;;63.70;24.20;;;;;;;;;;5072805;28;20036;-77
2022/03/25 06:47:53;;;;;;;67.07;25.52;;;;;;;;;;5056444;28;20041;-77
2022/03/25 06:50:21;;;;;;;76.30;27.88;;;;;;;;;;5054204;28;20491;-77
2022/03/25 06:52:47;;;;;;;77.90;27.90;;;;;;;;;;5069580;28;20044;-77
2022/03/25 06:55:13;;;;;;;78.97;28.27;;;;;;;;;;5052238;28;20085;-75
2022/03/25 06:57:40;;;;;;;80.85;28.60;;;;;;;;;;5052953;28;20073;-74
2022/03/25 07:00:11;;;;;;;91.85;31.98;;;;;;;;;;5069026;28;20069;-75
2022/03/25 07:02:37;;;;;;;92.70;32.33;;;;;;;;;;5052477;28;20044;-75
2022/03/25 07:05:03;;;;;;;94.45;32.35;;;;;;;;;;5068443;28;20052;-75
2022/03/25 07:07:31;;;;;;;110.43;35.85;;;;;;;;;;5052074;28;20040;-75
2022/03/25 07:09:57;;;;;;;115.50;35.90;;;;;;;;;;5052631;28;20043;-75
2022/03/25 07:12:23;;;;;;;123.60;38.97;;;;;;;;;;5052476;28;20041;-74
2022/03/25 07:14:49;;;;;;;109.20;35.85;;;;;;;;;;5053173;28;20097;-74
2022/03/25 07:17:15;;;;;;;82.88;30.67;;;;;;;;;;5072510;28;20056;-75
2022/03/25 07:19:41;;;;;;;59.53;24.88;;;;;;;;;;5055286;28;20074;-74
2022/03/25 07:22:07;;;;;;;63.22;23.73;;;;;;;;;;5055845;28;20048;-74
2022/03/25 07:24:33;;;;;;;62.78;25.58;;;;;;;;;;5072924;28;20836;-75
2022/03/25 07:26:59;;;;;;;58.90;22.85;;;;;;;;;;5073095;28;20076;-75
2022/03/25 07:29:25;;;;;;;47.58;19.05;;;;;;;;;;5055903;28;20104;-76
2022/03/25 07:31:51;;;;;;;36.47;17.42;;;;;;;;;;5055642;28;20036;-76
2022/03/25 07:34:17;;;;;;;53.50;22.33;;;;;;;;;;5055380;28;20075;-75
2022/03/25 07:36:43;;;;;;;58.17;23.55;;;;;;;;;;5072023;28;20051;-75
2022/03/25 07:39:09;;;;;;;52.90;23.45;;;;;;;;;;5055288;28;20044;-76
2022/03/25 07:41:35;;;;;;;55.85;24.15;;;;;;;;;;5055225;28;20032;-75
2022/03/25 07:44:01;;;;;;;48.83;19.63;;;;;;;;;;5055341;28;20041;-77
2022/03/25 07:46:28;;;;;;;61.15;24.33;;;;;;;;;;5055211;28;20051;-75
2022/03/25 07:48:54;;;;;;;48.05;20.80;;;;;;;;;;5055351;28;20068;-76
2022/03/25 07:51:20;;;;;;;61.92;22.90;;;;;;;;;;5071753;28;20072;-75
2022/03/25 07:53:46;;;;;;;34.70;17.25;;;;;;;;;;5055420;28;20080;-76
2022/03/25 07:56:12;;;;;;;51.65;21.95;;;;;;;;;;5071665;28;20040;-74
2022/03/25 07:58:38;;;;;;;37.90;17.27;;;;;;;;;;5072028;28;20564;-76
2022/03/25 08:01:04;;;;;;;53.42;22.80;;;;;;;;;;5071601;28;20131;-76
2022/03/25 08:03:30;;;;;;;55.05;22.75;;;;;;;;;;5071791;28;20067;-76
2022/03/25 08:05:57;;;;;;;45.70;20.13;;;;;;;;;;5055047;28;20093;-76
2022/03/25 08:08:23;;;;;;;45.97;20.15;;;;;;;;;;5054715;28;20063;-76
2022/03/25 08:10:56;;;;;;;45.08;21.17;;;;;;;;;;5071611;28;20129;-76
2022/03/25 08:13:25;;;;;;;46.60;19.25;;;;;;;;;;5054808;28;20036;-77
2022/03/25 08:15:51;;;;;;;48.50;22.77;;;;;;;;;;5054594;28;20032;-77
2022/03/25 08:18:17;;;;;;;48.20;23.33;;;;;;;;;;5054299;28;20056;-78
2022/03/25 08:20:47;;;;;;;47.70;21.98;;;;;;;;;;5071275;28;20053;-78
2022/03/25 08:28:53;;;;;;;40.95;19.63;;;;;;;;;;5071500;28;20132;-76
2022/03/25 08:31:19;;;;;;;36.35;17.85;;;;;;;;;;5071006;28;20127;-78
2022/03/25 08:33:46;;;;;;;43.17;19.50;;;;;;;;;;5071224;28;20599;-78
2022/03/25 08:36:12;;;;;;;39.63;18.92;;;;;;;;;;5071224;28;20127;-78
2022/03/25 08:38:38;;;;;;;44.42;19.65;;;;;;;;;;5054374;28;20098;-79
2022/03/25 08:41:04;;;;;;;36.90;16.80;;;;;;;;;;5054090;28;20072;-78
2022/03/25 08:43:30;;;;;;;39.20;17.50;;;;;;;;;;5054360;28;20043;-78
2022/03/25 08:45:57;;;;;;;40.10;19.08;;;;;;;;;;5054032;28;20086;-79
2022/03/25 08:48:23;;;;;;;40.70;19.90;;;;;;;;;;5071049;28;20074;-77
2022/03/25 08:50:49;;;;;;;37.33;17.60;;;;;;;;;;5070748;28;20148;-78
2022/03/25 08:53:16;;;;;;;45.40;19.13;;;;;;;;;;5071284;28;20040;-78
2022/03/25 08:55:42;;;;;;;42.20;19.38;;;;;;;;;;5054777;28;20059;-78
2022/03/25 08:58:08;;;;;;;38.78;18.98;;;;;;;;;;5071219;28;20138;-79
2022/03/25 09:00:34;;;;;;;41.28;19.98;;;;;;;;;;5053685;28;20160;-78
2022/03/25 09:03:00;;;;;;;35.80;17.85;;;;;;;;;;5051490;28;20483;-78
2022/03/25 09:05:26;;;;;;;37.38;20.00;;;;;;;;;;5050536;28;20148;-79
2022/03/25 09:07:52;;;;;;;36.83;20.13;;;;;;;;;;5049850;28;20144;-78
2022/03/25 09:10:18;;;;;;;36.83;26.83;;;;;;;;;;5050316;28;20468;-77
2022/03/25 09:12:44;;;;;;;37.88;17.10;;;;;;;;;;5050268;28;20101;-76
2022/03/25 09:15:12;;;;;;;30.25;15.18;;;;;;;;;;5050583;28;20329;-78
2022/03/25 09:17:38;;;;;;;32.13;13.98;;;;;;;;;;5067188;28;20052;-77
2022/03/25 09:20:05;;;;;;;26.67;13.13;;;;;;;;;;5051953;28;20040;-79
2022/03/25 09:22:31;;;;;;;36.28;15.07;;;;;;;;;;5050217;28;20454;-78
2022/03/25 09:24:58;;;;;;;36.88;16.83;;;;;;;;;;5050214;28;20075;-77
2022/03/25 09:27:24;;;;;;;32.20;14.60;;;;;;;;;;5049953;28;20082;-78
2022/03/25 09:29:50;;;;;;;35.00;16.15;;;;;;;;;;5049939;28;20044;-79
2022/03/25 09:32:16;;;;;;;32.40;15.52;;;;;;;;;;5066589;28;20040;-78
2022/03/25 09:37:27;;;;;;;34.17;14.75;;;;;;;;;;5066698;28;20056;-78
2022/03/25 09:39:53;;;;;;;28.67;13.38;;;;;;;;;;5049951;28;20049;-78
2022/03/25 09:42:20;;;;;;;33.75;14.77;;;;;;;;;;5066256;28;20036;-79
2022/03/25 09:44:48;;;;;;;32.15;12.65;;;;;;;;;;5067034;28;20484;-79
2022/03/25 09:47:16;;;;;;;29.05;13.07;;;;;;;;;;5066645;28;20055;-78
2022/03/25 09:49:43;;;;;;;28.20;12.38;;;;;;;;;;5051223;28;20068;-78
2022/03/25 09:52:09;;;;;;;30.13;12.70;;;;;;;;;;5050213;28;20038;-77
2022/03/25 09:54:35;;;;;;;27.73;12.57;;;;;;;;;;5066630;28;20486;-78
2022/03/25 09:57:01;;;;;;;16.75;8.05;;;;;;;;;;5049553;28;20036;-79
2022/03/25 09:59:28;;;;;;;20.73;9.63;;;;;;;;;;5051966;28;20047;-77
2022/03/25 10:01:54;;;;;;;23.42;9.95;;;;;;;;;;5052179;28;20324;-79
2022/03/25 10:04:56;;;;;;;25.27;9.07;;;;;;;;;;5068217;28;20127;-79
2022/03/25 10:07:26;;;;;;;26.85;12.07;;;;;;;;;;5028631;28;20041;-77
2022/03/25 10:10:11;;;;;;;14.50;7.72;;;;;;;;;;5049327;28;20087;-78
2022/03/25 10:12:38;;;;;;;28.63;12.25;;;;;;;;;;5067511;28;20082;-80
2022/03/25 10:15:11;;;;;;;25.98;10.38;;;;;;;;;;5050243;28;20051;-78
2022/03/25 10:17:50;;;;;;;25.10;11.38;;;;;;;;;;5066302;28;20110;-79
2022/03/25 10:20:17;;;;;;;23.42;11.07;;;;;;;;;;5049100;28;20102;-78
2022/03/25 10:23:01;;;;;;;24.40;9.82;;;;;;;;;;5050249;28;20052;-79
2022/03/25 10:25:50;;;;;;;18.70;8.30;;;;;;;;;;5066505;28;20049;-79
2022/03/25 10:28:21;;;;;;;22.10;10.25;;;;;;;;;;5050031;28;20073;-78
2022/03/25 10:30:52;;;;;;;26.80;12.23;;;;;;;;;;5052912;28;20051;-78
2022/03/25 10:33:23;;;;;;;34.65;14.23;;;;;;;;;;5053426;28;20040;-78
2022/03/25 10:35:53;;;;;;;26.40;11.77;;;;;;;;;;5054139;28;20454;-79
2022/03/25 10:38:21;;;;;;;23.83;9.55;;;;;;;;;;5053068;28;20191;-76
2022/03/25 10:40:55;;;;;;;25.48;10.77;;;;;;;;;;5076296;28;20095;-78
2022/03/25 10:43:21;;;;;;;26.13;9.88;;;;;;;;;;5056991;28;20090;-78
2022/03/25 10:45:47;;;;;;;20.42;9.88;;;;;;;;;;5073121;28;20045;-77
2022/03/25 10:48:18;;;;;;;29.08;11.25;;;;;;;;;;5073254;28;20032;-78
2022/03/25 10:51:03;;;;;;;16.35;6.63;;;;;;;;;;5056957;28;20067;-77
2022/03/25 10:53:29;;;;;;;32.35;12.63;;;;;;;;;;5056325;28;20057;-79
2022/03/25 10:55:56;;;;;;;26.50;11.85;;;;;;;;;;5073028;28;20484;-77
2022/03/25 10:58:22;;;;;;;15.52;7.03;;;;;;;;;;5057160;28;20051;-78
2022/03/25 11:00:49;;;;;;;27.48;10.00;;;;;;;;;;5072667;28;20078;-78
2022/03/25 11:03:15;;;;;;;24.17;11.60;;;;;;;;;;5056600;28;20519;-79
2022/03/25 11:05:41;;;;;;;18.52;9.18;;;;;;;;;;5056404;28;20040;-80
2022/03/25 11:08:08;;;;;;;27.30;10.55;;;;;;;;;;5056521;28;20040;-78
2022/03/25 11:10:35;;;;;;;22.90;9.20;;;;;;;;;;5073363;28;20097;-78
2022/03/25 11:13:02;;;;;;;22.63;10.05;;;;;;;;;;5058077;28;20396;-78
2022/03/25 11:15:30;;;;;;;25.92;11.45;;;;;;;;;;5055980;28;20131;-78
2022/03/25 11:17:56;;;;;;;23.27;11.55;;;;;;;;;;5055695;28;20111;-79
2022/03/25 11:20:24;;;;;;;22.77;10.48;;;;;;;;;;5058859;28;20508;-79
2022/03/25 11:22:52;;;;;;;26.83;11.57;;;;;;;;;;5055708;28;20124;-79
2022/03/25 11:25:21;;;;;;;25.80;12.02;;;;;;;;;;5056109;28;20110;-77
2022/03/25 11:27:50;;;;;;;24.38;11.10;;;;;;;;;;5056048;28;20044;-79
2022/03/25 11:30:16;;;;;;;25.73;10.90;;;;;;;;;;5055841;28;20480;-79
2022/03/25 11:32:49;;;;;;;21.27;10.23;;;;;;;;;;5055744;28;20041;-79
2022/03/25 11:35:16;;;;;;;25.02;10.25;;;;;;;;;;5055824;28;20040;-80
2022/03/25 11:37:42;;;;;;;22.83;10.65;;;;;;;;;;5073696;28;20084;-78
2022/03/25 11:40:14;;;;;;;20.95;8.98;;;;;;;;;;5057716;28;20072;-80
2022/03/25 11:42:40;;;;;;;17.08;6.97;;;;;;;;;;5056481;28;20037;-81
2022/03/25 11:45:42;;;;;;;16.42;6.82;;;;;;;;;;5058901;28;20050;-79
2022/03/25 11:48:08;;;;;;;21.13;9.25;;;;;;;;;;5072593;28;20048;-78
2022/03/25 11:50:37;;;;;;;18.77;9.20;;;;;;;;;;5072435;28;20090;-78
2022/03/25 11:53:12;;;;;;;16.42;7.80;;;;;;;;;;5074181;28;20048;-77
2022/03/25 11:55:53;;;;;;;19.95;7.88;;;;;;;;;;5073159;28;20048;-79
2022/03/25 11:58:19;;;;;;;29.00;9.65;;;;;;;;;;5055337;28;20086;-80
2022/03/25 12:00:48;;;;;;;19.63;9.60;;;;;;;;;;5055770;28;20041;-79
2022/03/25 12:03:15;;;;;;;12.23;6.30;;;;;;;;;;5057965;28;20396;-81
2022/03/25 12:05:57;;;;;;;13.45;6.90;;;;;;;;;;5057966;28;20364;-78
2022/03/25 12:08:32;;;;;;;23.30;8.80;;;;;;;;;;5061854;28;20047;-79
2022/03/25 12:11:01;;;;;;;18.35;7.82;;;;;;;;;;5061487;28;20097;-78
2022/03/25 12:13:46;;;;;;;15.77;9.95;;;;;;;;;;5057804;28;20108;-79
2022/03/25 12:16:12;;;;;;;17.77;7.38;;;;;;;;;;5061561;28;20048;-78
2022/03/25 12:18:44;;;;;;;24.35;10.23;;;;;;;;;;5057013;28;20417;-77
2022/03/25 12:21:25;;;;;;;13.95;7.40;;;;;;;;;;5058180;28;20062;-77
2022/03/25 12:23:58;;;;;;;17.25;7.90;;;;;;;;;;5059962;28;20086;-78
2022/03/25 12:26:36;;;;;;;14.02;5.72;;;;;;;;;;5061442;28;20067;-76
2022/03/25 12:29:03;;;;;;;19.42;9.30;;;;;;;;;;5060720;28;20041;-78
2022/03/25 12:31:30;;;;;;;19.40;7.68;;;;;;;;;;5057096;28;20040;-79
2022/03/25 12:33:57;;;;;;;14.48;6.43;;;;;;;;;;5060117;28;20047;-80
2022/03/25 12:36:29;;;;;;;17.00;7.72;;;;;;;;;;5082546;28;20048;-78
2022/03/25 12:38:56;;;;;;;10.13;6.57;;;;;;;;;;5060152;28;20079;-79
2022/03/25 12:41:26;;;;;;;27.80;11.85;;;;;;;;;;5057662;28;20071;-79
2022/03/25 12:43:59;;;;;;;19.92;9.65;;;;;;;;;;5072575;28;20484;-78
2022/03/25 12:46:26;;;;;;;18.52;9.85;;;;;;;;;;5060154;28;20037;-79
2022/03/25 12:48:52;;;;;;;27.05;12.48;;;;;;;;;;5059608;28;20039;-80
2022/03/25 12:51:21;;;;;;;34.00;13.40;;;;;;;;;;5057342;28;20056;-80
2022/03/25 12:53:48;;;;;;;28.88;13.63;;;;;;;;;;5073740;28;20044;-79
2022/03/25 12:56:15;;;;;;;30.63;13.50;;;;;;;;;;5073379;28;20070;-79
2022/03/25 12:58:41;;;;;;;30.48;14.32;;;;;;;;;;5071493;28;20051;-78
2022/03/25 13:01:07;;;;;;;28.40;9.65;;;;;;;;;;5062992;28;20044;-78
2022/03/25 13:03:34;;;;;;;25.40;10.52;;;;;;;;;;5055958;28;20048;-78
2022/03/25 13:06:14;;;;;;;20.20;8.23;;;;;;;;;;5078666;28;20047;-79
2022/03/25 13:08:41;;;;;;;26.90;11.38;;;;;;;;;;5075623;28;20048;-79
2022/03/25 13:11:07;;;;;;;16.45;8.80;;;;;;;;;;5057816;28;20036;-79
2022/03/25 13:13:38;;;;;;;17.08;6.90;;;;;;;;;;5082317;28;20107;-78
2022/03/25 13:16:04;;;;;;;15.73;6.95;;;;;;;;;;5081232;28;20048;-81
2022/03/25 13:18:37;;;;;;;18.88;9.68;;;;;;;;;;5048596;28;20403;-80
2022/03/25 13:21:04;;;;;;;22.20;9.45;;;;;;;;;;5076974;28;20109;-79
2022/03/25 13:23:30;;;;;;;27.48;11.88;;;;;;;;;;5072455;28;20150;-80
2022/03/25 13:26:00;;;;;;;26.58;11.75;;;;;;;;;;5071723;28;20070;-78
2022/03/25 13:28:46;;;;;;;15.27;8.03;;;;;;;;;;5074730;28;20125;-78
2022/03/25 13:31:12;;;;;;;21.20;9.00;;;;;;;;;;5061496;28;20294;-78
2022/03/25 13:33:51;;;;;;;17.40;7.63;;;;;;;;;;5078426;28;20040;-80
2022/03/25 13:36:24;;;;;;;22.45;9.02;;;;;;;;;;5061131;28;20055;-77
2022/03/25 13:38:52;;;;;;;30.08;11.65;;;;;;;;;;5057033;28;20403;-79
2022/03/25 13:41:22;;;;;;;10.52;6.15;;;;;;;;;;5059519;28;20040;-81
2022/03/25 13:43:53;;;;;;;14.77;7.40;;;;;;;;;;5062301;28;20079;-78
2022/03/25 13:46:21;;;;;;;14.77;5.40;;;;;;;;;;5079032;28;20439;-82
2022/03/25 13:48:47;;;;;;;16.80;9.30;;;;;;;;;;5075527;28;20101;-82
2022/03/25 13:51:19;;;;;;;22.50;8.18;;;;;;;;;;5064836;28;20554;-80
2022/03/25 13:53:48;;;;;;;24.40;9.98;;;;;;;;;;5076763;28;20037;-78
2022/03/25 13:56:19;;;;;;;13.75;6.90;;;;;;;;;;5063757;28;20107;-78
2022/03/25 13:58:46;;;;;;;;;;;;;;;;;;5062763;28;20075;-80
2022/03/25 14:01:13;;;;;;;25.00;9.18;;;;;;;;;;5060135;28;19927;-78
2022/03/25 14:03:39;;;;;;;19.98;9.77;;;;;;;;;;5078055;28;20096;-77
2022/03/25 14:06:15;;;;;;;20.52;9.38;;;;;;;;;;5063216;28;20508;-77
2022/03/25 14:08:41;;;;;;;21.25;9.45;;;;;;;;;;5060941;28;20396;-81
2022/03/25 14:11:08;;;;;;;27.02;11.45;;;;;;;;;;5046006;28;20048;-78
2022/03/25 14:13:35;;;;;;;19.58;7.68;;;;;;;;;;5061695;28;20041;-79
2022/03/25 14:16:14;;;;;;;16.77;7.75;;;;;;;;;;5079827;28;20044;-79
2022/03/25 14:18:50;;;;;;;29.20;12.40;;;;;;;;;;5069468;28;20082;-83
2022/03/25 14:21:24;;;;;;;15.77;7.93;;;;;;;;;;5065462;28;20404;-79
2022/03/25 14:23:50;;;;;;;23.98;9.73;;;;;;;;;;5066222;28;20040;-80